sensor_id;sensor_type;location;lat;lon;timestamp;temperature;humidity
3842;DHT22;1936;47.074;15.336;2023-07-13T00:01:39;20.90;75.50
3842;DHT22;1936;47.074;15.336;2023-07-13T00:03:43;21.10;75.80
3842;DHT22;1936;47.074;15.336;2023-07-13T00:05:47;21.20;74.40
3842;DHT22;1936;47.074;15.336;2023-07-13T00:07:52;21.00;75.40
3842;DHT22;1936;47.074;15.336;2023-07-13T00:09:55;21.10;74.60
3842;DHT22;1936;47.074;15.336;2023-07-13T00:11:58;21.00;74.80
3842;DHT22;1936;47.074;15.336;2023-07-13T00:14:02;21.00;75.30
3842;DHT22;1936;47.074;15.336;2023-07-13T00:16:09;20.90;75.30
3842;DHT22;1936;47.074;15.336;2023-07-13T00:18:13;20.80;76.60
3842;DHT22;1936;47.074;15.336;2023-07-13T00:20:18;20.90;76.00
3842;DHT22;1936;47.074;15.336;2023-07-13T00:22:23;21.10;75.70
3842;DHT22;1936;47.074;15.336;2023-07-13T00:24:27;20.90;75.50
3842;DHT22;1936;47.074;15.336;2023-07-13T00:26:31;20.80;75.80
3842;DHT22;1936;47.074;15.336;2023-07-13T00:28:37;20.80;77.10
3842;DHT22;1936;47.074;15.336;2023-07-13T00:30:41;20.90;76.90
3842;DHT22;1936;47.074;15.336;2023-07-13T00:32:44;21.00;75.20
3842;DHT22;1936;47.074;15.336;2023-07-13T00:34:48;21.10;75.70
3842;DHT22;1936;47.074;15.336;2023-07-13T00:36:51;21.10;75.80
3842;DHT22;1936;47.074;15.336;2023-07-13T00:38:55;21.20;75.60
3842;DHT22;1936;47.074;15.336;2023-07-13T00:40:59;21.30;75.20
3842;DHT22;1936;47.074;15.336;2023-07-13T00:43:04;21.20;74.90
3842;DHT22;1936;47.074;15.336;2023-07-13T00:47:46;21.20;74.10
3842;DHT22;1936;47.074;15.336;2023-07-13T00:49:50;21.00;75.30
3842;DHT22;1936;47.074;15.336;2023-07-13T00:51:58;21.00;75.30
3842;DHT22;1936;47.074;15.336;2023-07-13T00:54:05;21.10;75.80
3842;DHT22;1936;47.074;15.336;2023-07-13T00:56:10;21.10;75.40
3842;DHT22;1936;47.074;15.336;2023-07-13T00:58:18;21.20;76.10
3842;DHT22;1936;47.074;15.336;2023-07-13T01:00:29;21.10;75.50
3842;DHT22;1936;47.074;15.336;2023-07-13T01:02:33;21.30;74.50
3842;DHT22;1936;47.074;15.336;2023-07-13T01:04:39;21.20;74.70
3842;DHT22;1936;47.074;15.336;2023-07-13T01:06:46;20.90;75.50
3842;DHT22;1936;47.074;15.336;2023-07-13T01:08:50;20.80;76.40
3842;DHT22;1936;47.074;15.336;2023-07-13T01:10:54;20.60;77.00
3842;DHT22;1936;47.074;15.336;2023-07-13T01:12:58;20.60;77.20
3842;DHT22;1936;47.074;15.336;2023-07-13T01:15:02;20.70;77.70
3842;DHT22;1936;47.074;15.336;2023-07-13T01:17:09;20.60;78.50
3842;DHT22;1936;47.074;15.336;2023-07-13T01:19:23;20.40;80.20
3842;DHT22;1936;47.074;15.336;2023-07-13T01:21:33;20.30;81.20
3842;DHT22;1936;47.074;15.336;2023-07-13T01:23:36;20.00;82.70
3842;DHT22;1936;47.074;15.336;2023-07-13T01:25:40;19.80;84.20
3842;DHT22;1936;47.074;15.336;2023-07-13T01:27:43;19.70;84.80
3842;DHT22;1936;47.074;15.336;2023-07-13T01:29:47;19.80;84.70
3842;DHT22;1936;47.074;15.336;2023-07-13T01:31:51;19.70;85.50
3842;DHT22;1936;47.074;15.336;2023-07-13T01:33:54;19.70;86.00
3842;DHT22;1936;47.074;15.336;2023-07-13T01:35:59;19.60;88.60
3842;DHT22;1936;47.074;15.336;2023-07-13T01:38:05;19.40;90.00
3842;DHT22;1936;47.074;15.336;2023-07-13T01:40:10;19.40;90.40
3842;DHT22;1936;47.074;15.336;2023-07-13T01:42:14;19.40;90.50
3842;DHT22;1936;47.074;15.336;2023-07-13T01:44:17;19.40;90.90
3842;DHT22;1936;47.074;15.336;2023-07-13T01:46:21;19.40;91.00
3842;DHT22;1936;47.074;15.336;2023-07-13T01:48:25;19.50;91.20
3842;DHT22;1936;47.074;15.336;2023-07-13T01:50:28;19.60;90.50
3842;DHT22;1936;47.074;15.336;2023-07-13T01:52:32;19.60;90.40
3842;DHT22;1936;47.074;15.336;2023-07-13T01:54:37;19.50;91.10
3842;DHT22;1936;47.074;15.336;2023-07-13T01:56:40;19.40;90.70
3842;DHT22;1936;47.074;15.336;2023-07-13T01:58:45;19.30;92.30
3842;DHT22;1936;47.074;15.336;2023-07-13T02:00:48;19.30;91.80
3842;DHT22;1936;47.074;15.336;2023-07-13T02:02:53;19.20;93.30
3842;DHT22;1936;47.074;15.336;2023-07-13T02:04:55;19.50;93.10
3842;DHT22;1936;47.074;15.336;2023-07-13T02:06:59;19.40;93.60
3842;DHT22;1936;47.074;15.336;2023-07-13T02:09:03;19.50;93.40
3842;DHT22;1936;47.074;15.336;2023-07-13T02:11:08;19.50;93.00
3842;DHT22;1936;47.074;15.336;2023-07-13T02:13:13;19.50;93.00
3842;DHT22;1936;47.074;15.336;2023-07-13T02:15:16;19.30;92.60
3842;DHT22;1936;47.074;15.336;2023-07-13T02:17:20;19.10;93.30
3842;DHT22;1936;47.074;15.336;2023-07-13T02:19:24;19.20;93.90
3842;DHT22;1936;47.074;15.336;2023-07-13T02:21:27;19.20;93.50
3842;DHT22;1936;47.074;15.336;2023-07-13T02:23:32;19.40;93.70
3842;DHT22;1936;47.074;15.336;2023-07-13T02:25:35;19.50;94.20
3842;DHT22;1936;47.074;15.336;2023-07-13T02:27:40;19.70;93.60
3842;DHT22;1936;47.074;15.336;2023-07-13T02:29:44;19.70;93.70
3842;DHT22;1936;47.074;15.336;2023-07-13T02:31:46;19.80;93.50
3842;DHT22;1936;47.074;15.336;2023-07-13T02:33:50;19.70;93.60
3842;DHT22;1936;47.074;15.336;2023-07-13T02:35:53;19.40;93.90
3842;DHT22;1936;47.074;15.336;2023-07-13T02:37:57;19.40;94.30
3842;DHT22;1936;47.074;15.336;2023-07-13T02:40:02;19.40;93.90
3842;DHT22;1936;47.074;15.336;2023-07-13T02:42:10;19.20;94.50
3842;DHT22;1936;47.074;15.336;2023-07-13T02:44:15;19.30;94.20
3842;DHT22;1936;47.074;15.336;2023-07-13T02:46:19;19.10;94.20
3842;DHT22;1936;47.074;15.336;2023-07-13T02:48:22;19.10;94.20
3842;DHT22;1936;47.074;15.336;2023-07-13T02:50:25;19.10;94.00
3842;DHT22;1936;47.074;15.336;2023-07-13T02:52:28;19.10;94.10
3842;DHT22;1936;47.074;15.336;2023-07-13T02:54:32;19.20;93.90
3842;DHT22;1936;47.074;15.336;2023-07-13T02:56:36;19.40;93.60
3842;DHT22;1936;47.074;15.336;2023-07-13T02:58:41;19.30;93.70
3842;DHT22;1936;47.074;15.336;2023-07-13T03:00:47;19.40;93.30
3842;DHT22;1936;47.074;15.336;2023-07-13T03:02:52;19.30;93.40
3842;DHT22;1936;47.074;15.336;2023-07-13T03:04:59;19.30;93.50
3842;DHT22;1936;47.074;15.336;2023-07-13T03:07:03;19.30;93.30
3842;DHT22;1936;47.074;15.336;2023-07-13T03:09:07;19.40;93.00
3842;DHT22;1936;47.074;15.336;2023-07-13T03:11:18;19.40;92.70
3842;DHT22;1936;47.074;15.336;2023-07-13T03:13:22;19.30;93.70
3842;DHT22;1936;47.074;15.336;2023-07-13T03:15:26;19.30;93.90
3842;DHT22;1936;47.074;15.336;2023-07-13T03:17:31;19.20;93.80
3842;DHT22;1936;47.074;15.336;2023-07-13T03:19:34;19.00;94.20
3842;DHT22;1936;47.074;15.336;2023-07-13T03:21:38;19.00;95.00
3842;DHT22;1936;47.074;15.336;2023-07-13T03:23:43;19.00;94.90
3842;DHT22;1936;47.074;15.336;2023-07-13T03:25:48;19.00;94.70
3842;DHT22;1936;47.074;15.336;2023-07-13T03:27:52;19.10;94.50
3842;DHT22;1936;47.074;15.336;2023-07-13T03:29:55;19.00;94.40
3842;DHT22;1936;47.074;15.336;2023-07-13T03:31:59;19.00;95.10
3842;DHT22;1936;47.074;15.336;2023-07-13T03:34:04;19.10;95.10
3842;DHT22;1936;47.074;15.336;2023-07-13T03:36:12;19.20;95.00
3842;DHT22;1936;47.074;15.336;2023-07-13T03:38:16;19.30;94.70
3842;DHT22;1936;47.074;15.336;2023-07-13T03:40:20;19.20;94.40
3842;DHT22;1936;47.074;15.336;2023-07-13T03:42:23;19.10;94.40
3842;DHT22;1936;47.074;15.336;2023-07-13T03:44:27;19.00;94.60
3842;DHT22;1936;47.074;15.336;2023-07-13T03:46:31;19.00;94.20
3842;DHT22;1936;47.074;15.336;2023-07-13T03:48:35;18.40;95.10
3842;DHT22;1936;47.074;15.336;2023-07-13T03:50:43;18.50;95.50
3842;DHT22;1936;47.074;15.336;2023-07-13T03:52:46;18.50;95.50
3842;DHT22;1936;47.074;15.336;2023-07-13T03:54:50;18.70;95.20
3842;DHT22;1936;47.074;15.336;2023-07-13T03:56:54;18.80;94.80
3842;DHT22;1936;47.074;15.336;2023-07-13T03:58:57;18.80;94.80
3842;DHT22;1936;47.074;15.336;2023-07-13T04:01:03;18.80;94.70
3842;DHT22;1936;47.074;15.336;2023-07-13T04:03:07;18.90;94.50
3842;DHT22;1936;47.074;15.336;2023-07-13T04:05:10;18.80;94.70
3842;DHT22;1936;47.074;15.336;2023-07-13T04:07:15;18.90;94.60
3842;DHT22;1936;47.074;15.336;2023-07-13T04:09:19;18.80;94.80
3842;DHT22;1936;47.074;15.336;2023-07-13T04:11:25;18.90;94.50
3842;DHT22;1936;47.074;15.336;2023-07-13T04:13:29;19.00;93.50
3842;DHT22;1936;47.074;15.336;2023-07-13T04:15:32;19.10;93.80
3842;DHT22;1936;47.074;15.336;2023-07-13T04:17:36;19.10;93.90
3842;DHT22;1936;47.074;15.336;2023-07-13T04:19:40;18.80;94.80
3842;DHT22;1936;47.074;15.336;2023-07-13T04:21:43;18.90;95.10
3842;DHT22;1936;47.074;15.336;2023-07-13T04:23:48;19.00;95.00
3842;DHT22;1936;47.074;15.336;2023-07-13T04:25:53;19.00;95.10
3842;DHT22;1936;47.074;15.336;2023-07-13T04:27:56;19.30;94.60
3842;DHT22;1936;47.074;15.336;2023-07-13T04:30:00;19.50;94.00
3842;DHT22;1936;47.074;15.336;2023-07-13T04:32:04;19.50;93.80
3842;DHT22;1936;47.074;15.336;2023-07-13T04:34:08;19.40;93.70
3842;DHT22;1936;47.074;15.336;2023-07-13T04:36:12;19.40;93.60
3842;DHT22;1936;47.074;15.336;2023-07-13T04:38:15;19.40;93.50
3842;DHT22;1936;47.074;15.336;2023-07-13T04:40:21;19.60;93.70
3842;DHT22;1936;47.074;15.336;2023-07-13T04:42:24;19.70;93.10
3842;DHT22;1936;47.074;15.336;2023-07-13T04:44:28;19.80;93.00
3842;DHT22;1936;47.074;15.336;2023-07-13T04:46:31;19.80;92.60
3842;DHT22;1936;47.074;15.336;2023-07-13T04:48:35;19.80;92.40
3842;DHT22;1936;47.074;15.336;2023-07-13T04:50:39;19.70;92.50
3842;DHT22;1936;47.074;15.336;2023-07-13T04:52:43;19.70;92.80
3842;DHT22;1936;47.074;15.336;2023-07-13T04:54:46;19.80;93.10
3842;DHT22;1936;47.074;15.336;2023-07-13T04:56:51;19.80;93.20
3842;DHT22;1936;47.074;15.336;2023-07-13T04:58:55;20.00;93.10
3842;DHT22;1936;47.074;15.336;2023-07-13T05:01:01;20.20;92.70
3842;DHT22;1936;47.074;15.336;2023-07-13T05:03:05;20.40;92.20
3842;DHT22;1936;47.074;15.336;2023-07-13T05:05:09;20.30;91.80
3842;DHT22;1936;47.074;15.336;2023-07-13T05:07:12;20.40;92.00
3842;DHT22;1936;47.074;15.336;2023-07-13T05:09:16;20.40;91.80
3842;DHT22;1936;47.074;15.336;2023-07-13T05:11:19;20.50;91.90
3842;DHT22;1936;47.074;15.336;2023-07-13T05:13:24;20.40;91.90
3842;DHT22;1936;47.074;15.336;2023-07-13T05:15:32;20.60;91.40
3842;DHT22;1936;47.074;15.336;2023-07-13T05:17:36;20.50;91.00
3842;DHT22;1936;47.074;15.336;2023-07-13T05:19:41;20.60;90.90
3842;DHT22;1936;47.074;15.336;2023-07-13T05:21:44;20.60;90.70
3842;DHT22;1936;47.074;15.336;2023-07-13T05:23:47;20.20;91.50
3842;DHT22;1936;47.074;15.336;2023-07-13T05:25:51;20.10;92.20
3842;DHT22;1936;47.074;15.336;2023-07-13T05:27:54;20.20;92.20
3842;DHT22;1936;47.074;15.336;2023-07-13T05:29:59;20.30;91.90
3842;DHT22;1936;47.074;15.336;2023-07-13T05:32:03;20.40;91.90
3842;DHT22;1936;47.074;15.336;2023-07-13T05:34:07;20.50;92.10
3842;DHT22;1936;47.074;15.336;2023-07-13T05:36:10;20.60;91.90
3842;DHT22;1936;47.074;15.336;2023-07-13T05:38:14;20.80;91.70
3842;DHT22;1936;47.074;15.336;2023-07-13T05:40:18;21.00;91.60
3842;DHT22;1936;47.074;15.336;2023-07-13T05:42:21;21.20;91.40
3842;DHT22;1936;47.074;15.336;2023-07-13T05:44:25;21.30;91.30
3842;DHT22;1936;47.074;15.336;2023-07-13T05:46:30;21.40;91.40
3842;DHT22;1936;47.074;15.336;2023-07-13T05:48:34;21.60;91.10
3842;DHT22;1936;47.074;15.336;2023-07-13T05:50:37;21.90;90.80
3842;DHT22;1936;47.074;15.336;2023-07-13T05:52:40;22.10;89.80
3842;DHT22;1936;47.074;15.336;2023-07-13T05:54:44;22.30;89.20
3842;DHT22;1936;47.074;15.336;2023-07-13T05:56:47;21.80;88.30
3842;DHT22;1936;47.074;15.336;2023-07-13T05:58:50;21.60;90.80
3842;DHT22;1936;47.074;15.336;2023-07-13T06:01:00;21.60;90.60
3842;DHT22;1936;47.074;15.336;2023-07-13T06:03:05;21.40;90.10
3842;DHT22;1936;47.074;15.336;2023-07-13T06:05:09;21.50;89.80
3842;DHT22;1936;47.074;15.336;2023-07-13T06:07:13;21.50;90.00
3842;DHT22;1936;47.074;15.336;2023-07-13T06:09:16;21.70;88.80
3842;DHT22;1936;47.074;15.336;2023-07-13T06:11:22;21.70;86.60
3842;DHT22;1936;47.074;15.336;2023-07-13T06:13:25;21.90;86.00
3842;DHT22;1936;47.074;15.336;2023-07-13T06:15:29;22.30;87.40
3842;DHT22;1936;47.074;15.336;2023-07-13T06:17:32;22.70;88.40
3842;DHT22;1936;47.074;15.336;2023-07-13T06:19:37;23.70;84.10
3842;DHT22;1936;47.074;15.336;2023-07-13T06:21:40;24.80;75.80
3842;DHT22;1936;47.074;15.336;2023-07-13T06:23:45;25.70;78.50
3842;DHT22;1936;47.074;15.336;2023-07-13T06:25:50;26.50;73.50
3842;DHT22;1936;47.074;15.336;2023-07-13T06:27:53;27.70;69.20
3842;DHT22;1936;47.074;15.336;2023-07-13T06:29:56;28.30;63.50
3842;DHT22;1936;47.074;15.336;2023-07-13T06:32:00;29.40;62.30
3842;DHT22;1936;47.074;15.336;2023-07-13T06:34:03;30.00;59.30
3842;DHT22;1936;47.074;15.336;2023-07-13T06:36:08;30.40;58.10
3842;DHT22;1936;47.074;15.336;2023-07-13T06:38:12;30.50;57.00
3842;DHT22;1936;47.074;15.336;2023-07-13T06:40:15;31.20;55.30
3842;DHT22;1936;47.074;15.336;2023-07-13T06:42:19;31.00;55.70
3842;DHT22;1936;47.074;15.336;2023-07-13T06:44:22;31.10;52.90
3842;DHT22;1936;47.074;15.336;2023-07-13T06:46:26;30.60;54.10
3842;DHT22;1936;47.074;15.336;2023-07-13T06:48:31;29.40;53.80
3842;DHT22;1936;47.074;15.336;2023-07-13T06:50:34;29.10;57.70
3842;DHT22;1936;47.074;15.336;2023-07-13T06:52:39;28.80;57.20
3842;DHT22;1936;47.074;15.336;2023-07-13T06:54:42;28.70;60.10
3842;DHT22;1936;47.074;15.336;2023-07-13T06:56:46;29.40;57.80
3842;DHT22;1936;47.074;15.336;2023-07-13T06:58:50;30.10;57.00
3842;DHT22;1936;47.074;15.336;2023-07-13T07:00:54;30.60;53.50
3842;DHT22;1936;47.074;15.336;2023-07-13T07:02:57;31.00;53.10
3842;DHT22;1936;47.074;15.336;2023-07-13T07:05:01;30.50;55.50
3842;DHT22;1936;47.074;15.336;2023-07-13T07:07:05;30.10;56.20
3842;DHT22;1936;47.074;15.336;2023-07-13T07:09:09;30.30;54.50
3842;DHT22;1936;47.074;15.336;2023-07-13T07:11:15;31.10;53.50
3842;DHT22;1936;47.074;15.336;2023-07-13T07:13:19;30.80;53.70
3842;DHT22;1936;47.074;15.336;2023-07-13T07:15:23;31.50;54.20
3842;DHT22;1936;47.074;15.336;2023-07-13T07:17:25;31.40;51.30
3842;DHT22;1936;47.074;15.336;2023-07-13T07:19:30;31.70;54.70
3842;DHT22;1936;47.074;15.336;2023-07-13T07:21:34;32.90;51.40
3842;DHT22;1936;47.074;15.336;2023-07-13T07:23:38;33.40;50.30
3842;DHT22;1936;47.074;15.336;2023-07-13T07:25:44;33.70;47.60
3842;DHT22;1936;47.074;15.336;2023-07-13T07:27:48;33.10;50.30
3842;DHT22;1936;47.074;15.336;2023-07-13T07:29:54;33.50;53.40
3842;DHT22;1936;47.074;15.336;2023-07-13T07:32:02;33.00;49.40
3842;DHT22;1936;47.074;15.336;2023-07-13T07:34:26;33.60;50.10
3842;DHT22;1936;47.074;15.336;2023-07-13T07:36:29;33.80;50.10
3842;DHT22;1936;47.074;15.336;2023-07-13T07:38:36;32.90;47.70
3842;DHT22;1936;47.074;15.336;2023-07-13T07:40:40;33.20;51.20
3842;DHT22;1936;47.074;15.336;2023-07-13T07:42:48;34.00;50.20
3842;DHT22;1936;47.074;15.336;2023-07-13T07:44:51;35.40;47.90
3842;DHT22;1936;47.074;15.336;2023-07-13T07:46:55;36.10;42.80
3842;DHT22;1936;47.074;15.336;2023-07-13T07:48:58;36.30;44.80
3842;DHT22;1936;47.074;15.336;2023-07-13T07:51:02;37.20;44.20
3842;DHT22;1936;47.074;15.336;2023-07-13T07:53:06;37.60;41.20
3842;DHT22;1936;47.074;15.336;2023-07-13T07:55:12;36.80;39.00
3842;DHT22;1936;47.074;15.336;2023-07-13T07:57:18;35.10;44.30
3842;DHT22;1936;47.074;15.336;2023-07-13T07:59:26;34.30;42.90
3842;DHT22;1936;47.074;15.336;2023-07-13T08:01:32;33.30;44.80
3842;DHT22;1936;47.074;15.336;2023-07-13T08:03:39;33.00;48.30
3842;DHT22;1936;47.074;15.336;2023-07-13T08:05:45;33.50;46.70
3842;DHT22;1936;47.074;15.336;2023-07-13T08:08:09;33.20;46.70
3842;DHT22;1936;47.074;15.336;2023-07-13T08:10:13;33.80;46.90
3842;DHT22;1936;47.074;15.336;2023-07-13T08:12:16;34.30;42.50
3842;DHT22;1936;47.074;15.336;2023-07-13T08:14:41;35.70;45.30
3842;DHT22;1936;47.074;15.336;2023-07-13T08:16:54;36.90;39.90
3842;DHT22;1936;47.074;15.336;2023-07-13T08:18:57;37.90;40.30
3842;DHT22;1936;47.074;15.336;2023-07-13T08:21:03;38.90;39.20
3842;DHT22;1936;47.074;15.336;2023-07-13T08:23:11;38.40;33.80
3842;DHT22;1936;47.074;15.336;2023-07-13T08:25:14;39.30;37.20
3842;DHT22;1936;47.074;15.336;2023-07-13T08:27:18;40.50;34.10
3842;DHT22;1936;47.074;15.336;2023-07-13T08:29:21;41.00;32.30
3842;DHT22;1936;47.074;15.336;2023-07-13T08:31:26;41.40;33.00
3842;DHT22;1936;47.074;15.336;2023-07-13T08:33:31;42.00;30.80
3842;DHT22;1936;47.074;15.336;2023-07-13T08:35:35;41.40;28.40
3842;DHT22;1936;47.074;15.336;2023-07-13T08:37:38;41.50;30.70
3842;DHT22;1936;47.074;15.336;2023-07-13T08:39:42;41.50;31.90
3842;DHT22;1936;47.074;15.336;2023-07-13T08:41:46;40.40;32.90
3842;DHT22;1936;47.074;15.336;2023-07-13T08:43:54;39.10;32.90
3842;DHT22;1936;47.074;15.336;2023-07-13T08:46:02;38.60;32.90
3842;DHT22;1936;47.074;15.336;2023-07-13T08:48:13;38.40;36.40
3842;DHT22;1936;47.074;15.336;2023-07-13T08:50:20;39.40;35.70
3842;DHT22;1936;47.074;15.336;2023-07-13T08:52:31;39.80;34.60
3842;DHT22;1936;47.074;15.336;2023-07-13T08:54:38;39.80;33.20
3842;DHT22;1936;47.074;15.336;2023-07-13T08:56:44;39.80;32.50
3842;DHT22;1936;47.074;15.336;2023-07-13T08:58:51;39.00;36.20
3842;DHT22;1936;47.074;15.336;2023-07-13T09:01:02;39.60;35.00
3842;DHT22;1936;47.074;15.336;2023-07-13T09:03:18;40.00;34.10
3842;DHT22;1936;47.074;15.336;2023-07-13T09:05:26;40.50;30.60
3842;DHT22;1936;47.074;15.336;2023-07-13T09:07:40;40.60;30.40
3842;DHT22;1936;47.074;15.336;2023-07-13T09:09:52;40.90;34.50
3842;DHT22;1936;47.074;15.336;2023-07-13T09:12:04;41.10;34.00
3842;DHT22;1936;47.074;15.336;2023-07-13T09:14:33;41.50;31.50
3842;DHT22;1936;47.074;15.336;2023-07-13T09:16:39;41.40;30.30
3842;DHT22;1936;47.074;15.336;2023-07-13T09:18:46;40.60;28.10
3842;DHT22;1936;47.074;15.336;2023-07-13T09:20:54;38.10;29.80
3842;DHT22;1936;47.074;15.336;2023-07-13T09:23:00;36.70;30.50
3842;DHT22;1936;47.074;15.336;2023-07-13T09:25:24;35.90;32.20
3842;DHT22;1936;47.074;15.336;2023-07-13T09:27:33;35.50;37.70
3842;DHT22;1936;47.074;15.336;2023-07-13T09:29:37;34.50;35.60
3842;DHT22;1936;47.074;15.336;2023-07-13T09:31:49;34.80;39.70
3842;DHT22;1936;47.074;15.336;2023-07-13T09:33:57;34.70;38.40
3842;DHT22;1936;47.074;15.336;2023-07-13T09:36:01;35.80;39.10
3842;DHT22;1936;47.074;15.336;2023-07-13T09:38:11;36.20;36.80
3842;DHT22;1936;47.074;15.336;2023-07-13T09:40:38;36.10;37.00
3842;DHT22;1936;47.074;15.336;2023-07-13T09:42:42;36.50;38.30
3842;DHT22;1936;47.074;15.336;2023-07-13T09:44:53;36.20;39.00
3842;DHT22;1936;47.074;15.336;2023-07-13T09:46:57;35.90;38.00
3842;DHT22;1936;47.074;15.336;2023-07-13T09:49:02;36.20;33.30
3842;DHT22;1936;47.074;15.336;2023-07-13T09:51:13;35.40;34.50
3842;DHT22;1936;47.074;15.336;2023-07-13T09:53:19;35.50;39.40
3842;DHT22;1936;47.074;15.336;2023-07-13T09:55:26;35.50;34.90
3842;DHT22;1936;47.074;15.336;2023-07-13T09:57:30;35.30;35.70
3842;DHT22;1936;47.074;15.336;2023-07-13T09:59:53;36.00;43.00
3842;DHT22;1936;47.074;15.336;2023-07-13T10:01:58;36.30;36.80
3842;DHT22;1936;47.074;15.336;2023-07-13T10:04:11;36.40;38.30
3842;DHT22;1936;47.074;15.336;2023-07-13T10:06:18;36.30;37.40
3842;DHT22;1936;47.074;15.336;2023-07-13T10:08:25;36.30;36.80
3842;DHT22;1936;47.074;15.336;2023-07-13T10:10:30;35.90;38.10
3842;DHT22;1936;47.074;15.336;2023-07-13T10:12:37;36.40;38.70
3842;DHT22;1936;47.074;15.336;2023-07-13T10:14:42;36.30;33.30
3842;DHT22;1936;47.074;15.336;2023-07-13T10:16:46;36.70;35.70
3842;DHT22;1936;47.074;15.336;2023-07-13T10:18:55;36.90;34.80
3842;DHT22;1936;47.074;15.336;2023-07-13T10:21:10;37.20;34.80
3842;DHT22;1936;47.074;15.336;2023-07-13T10:23:35;37.10;37.10
3842;DHT22;1936;47.074;15.336;2023-07-13T10:25:42;36.80;39.30
3842;DHT22;1936;47.074;15.336;2023-07-13T10:27:47;35.90;41.10
3842;DHT22;1936;47.074;15.336;2023-07-13T10:29:54;35.70;39.80
3842;DHT22;1936;47.074;15.336;2023-07-13T10:32:00;36.10;36.90
3842;DHT22;1936;47.074;15.336;2023-07-13T10:34:04;35.80;38.60
3842;DHT22;1936;47.074;15.336;2023-07-13T10:36:17;36.50;38.30
3842;DHT22;1936;47.074;15.336;2023-07-13T10:38:23;35.10;33.90
3842;DHT22;1936;47.074;15.336;2023-07-13T10:40:34;35.40;35.00
3842;DHT22;1936;47.074;15.336;2023-07-13T10:42:40;35.70;40.10
3842;DHT22;1936;47.074;15.336;2023-07-13T10:44:44;35.40;38.40
3842;DHT22;1936;47.074;15.336;2023-07-13T10:46:48;35.80;41.70
3842;DHT22;1936;47.074;15.336;2023-07-13T10:48:55;36.70;36.60
3842;DHT22;1936;47.074;15.336;2023-07-13T10:50:59;37.10;36.50
3842;DHT22;1936;47.074;15.336;2023-07-13T10:53:18;37.40;38.80
3842;DHT22;1936;47.074;15.336;2023-07-13T10:55:36;37.20;34.40
3842;DHT22;1936;47.074;15.336;2023-07-13T10:57:42;36.60;33.50
3842;DHT22;1936;47.074;15.336;2023-07-13T10:59:47;37.00;35.60
3842;DHT22;1936;47.074;15.336;2023-07-13T11:01:56;36.90;34.00
3842;DHT22;1936;47.074;15.336;2023-07-13T11:04:02;36.70;35.30
3842;DHT22;1936;47.074;15.336;2023-07-13T11:06:10;36.80;39.20
3842;DHT22;1936;47.074;15.336;2023-07-13T11:08:20;36.40;39.80
3842;DHT22;1936;47.074;15.336;2023-07-13T11:10:48;37.00;35.10
3842;DHT22;1936;47.074;15.336;2023-07-13T11:12:53;36.50;36.30
3842;DHT22;1936;47.074;15.336;2023-07-13T11:15:11;36.10;34.20
3842;DHT22;1936;47.074;15.336;2023-07-13T11:17:35;36.50;40.50
3842;DHT22;1936;47.074;15.336;2023-07-13T11:19:41;36.60;33.90
3842;DHT22;1936;47.074;15.336;2023-07-13T11:22:02;36.90;34.60
3842;DHT22;1936;47.074;15.336;2023-07-13T11:24:15;37.30;33.20
3842;DHT22;1936;47.074;15.336;2023-07-13T11:26:41;36.90;33.70
3842;DHT22;1936;47.074;15.336;2023-07-13T11:28:49;37.10;39.40
3842;DHT22;1936;47.074;15.336;2023-07-13T11:31:14;36.90;35.30
3842;DHT22;1936;47.074;15.336;2023-07-13T11:33:20;36.50;34.60
3842;DHT22;1936;47.074;15.336;2023-07-13T11:35:26;35.60;34.90
3842;DHT22;1936;47.074;15.336;2023-07-13T11:37:30;34.50;39.90
3842;DHT22;1936;47.074;15.336;2023-07-13T11:39:37;34.20;43.00
3842;DHT22;1936;47.074;15.336;2023-07-13T11:41:51;33.70;45.60
3842;DHT22;1936;47.074;15.336;2023-07-13T11:44:06;33.80;46.00
3842;DHT22;1936;47.074;15.336;2023-07-13T11:46:14;32.90;47.50
3842;DHT22;1936;47.074;15.336;2023-07-13T11:48:21;32.90;47.80
3842;DHT22;1936;47.074;15.336;2023-07-13T11:50:25;32.60;48.30
3842;DHT22;1936;47.074;15.336;2023-07-13T11:52:32;32.10;47.10
3842;DHT22;1936;47.074;15.336;2023-07-13T11:54:46;31.70;52.00
3842;DHT22;1936;47.074;15.336;2023-07-13T11:56:53;31.90;48.60
3842;DHT22;1936;47.074;15.336;2023-07-13T11:58:57;31.30;49.20
3842;DHT22;1936;47.074;15.336;2023-07-13T12:01:02;31.10;50.60
3842;DHT22;1936;47.074;15.336;2023-07-13T12:03:07;31.10;51.70
3842;DHT22;1936;47.074;15.336;2023-07-13T12:05:13;31.00;49.60
3842;DHT22;1936;47.074;15.336;2023-07-13T12:07:18;31.00;54.00
3842;DHT22;1936;47.074;15.336;2023-07-13T12:09:22;31.10;51.50
3842;DHT22;1936;47.074;15.336;2023-07-13T12:11:29;31.40;52.90
3842;DHT22;1936;47.074;15.336;2023-07-13T12:13:37;31.30;52.70
3842;DHT22;1936;47.074;15.336;2023-07-13T12:15:43;31.00;52.60
3842;DHT22;1936;47.074;15.336;2023-07-13T12:17:49;30.90;52.60
3842;DHT22;1936;47.074;15.336;2023-07-13T12:19:53;31.40;51.40
3842;DHT22;1936;47.074;15.336;2023-07-13T12:21:58;31.30;53.00
3842;DHT22;1936;47.074;15.336;2023-07-13T12:24:03;30.80;50.90
3842;DHT22;1936;47.074;15.336;2023-07-13T12:26:07;31.10;52.80
3842;DHT22;1936;47.074;15.336;2023-07-13T12:28:28;30.60;52.40
3842;DHT22;1936;47.074;15.336;2023-07-13T12:30:33;30.30;54.20
3842;DHT22;1936;47.074;15.336;2023-07-13T12:32:38;29.90;54.90
3842;DHT22;1936;47.074;15.336;2023-07-13T12:34:51;29.70;58.30
3842;DHT22;1936;47.074;15.336;2023-07-13T12:36:58;29.50;57.20
3842;DHT22;1936;47.074;15.336;2023-07-13T12:39:12;29.20;57.10
3842;DHT22;1936;47.074;15.336;2023-07-13T12:41:16;28.90;59.80
3842;DHT22;1936;47.074;15.336;2023-07-13T12:43:23;28.60;62.20
3842;DHT22;1936;47.074;15.336;2023-07-13T12:45:27;28.50;61.20
3842;DHT22;1936;47.074;15.336;2023-07-13T12:47:40;28.40;62.10
3842;DHT22;1936;47.074;15.336;2023-07-13T12:49:48;28.20;60.50
3842;DHT22;1936;47.074;15.336;2023-07-13T12:51:56;27.80;63.40
3842;DHT22;1936;47.074;15.336;2023-07-13T12:54:13;27.50;62.60
3842;DHT22;1936;47.074;15.336;2023-07-13T12:56:21;27.30;63.40
3842;DHT22;1936;47.074;15.336;2023-07-13T12:58:29;26.80;66.40
3842;DHT22;1936;47.074;15.336;2023-07-13T13:00:35;26.60;66.20
3842;DHT22;1936;47.074;15.336;2023-07-13T13:02:41;26.50;68.50
3842;DHT22;1936;47.074;15.336;2023-07-13T13:04:44;26.20;68.70
3842;DHT22;1936;47.074;15.336;2023-07-13T13:06:49;25.80;68.90
3842;DHT22;1936;47.074;15.336;2023-07-13T13:09:05;25.70;71.50
3842;DHT22;1936;47.074;15.336;2023-07-13T13:11:12;25.50;72.40
3842;DHT22;1936;47.074;15.336;2023-07-13T13:13:18;25.50;74.10
3842;DHT22;1936;47.074;15.336;2023-07-13T13:15:23;25.70;74.30
3842;DHT22;1936;47.074;15.336;2023-07-13T13:17:30;25.10;74.80
3842;DHT22;1936;47.074;15.336;2023-07-13T13:19:34;24.90;76.50
3842;DHT22;1936;47.074;15.336;2023-07-13T13:21:38;24.90;76.90
3842;DHT22;1936;47.074;15.336;2023-07-13T13:23:41;25.10;77.40
3842;DHT22;1936;47.074;15.336;2023-07-13T13:25:47;25.00;75.60
3842;DHT22;1936;47.074;15.336;2023-07-13T13:27:51;24.90;74.70
3842;DHT22;1936;47.074;15.336;2023-07-13T13:29:55;24.80;73.80
3842;DHT22;1936;47.074;15.336;2023-07-13T13:32:00;24.80;73.80